createdAt,value
2023-10-10T00:00:56.515Z,16.73
2023-10-10T00:03:26.994Z,17.20
2023-10-10T00:05:59.897Z,17.23
2023-10-10T00:08:34.845Z,16.80
2023-10-10T00:11:10.554Z,15.73
2023-10-10T00:13:43.710Z,15.73
2023-10-10T00:16:12.819Z,18.80
2023-10-10T00:18:44.769Z,17.57
2023-10-10T00:21:21.951Z,16.60
2023-10-10T00:23:52.048Z,18.03
2023-10-10T00:26:22.591Z,18.97
2023-10-10T00:28:55.669Z,17.33
2023-10-10T00:31:24.218Z,20.33
2023-10-10T00:33:52.948Z,20.23
2023-10-10T00:36:32.481Z,24.10
2023-10-10T00:39:08.254Z,23.30
2023-10-10T00:41:45.030Z,21.23
2023-10-10T00:44:14.610Z,17.43
2023-10-10T00:46:43.121Z,21.10
2023-10-10T00:49:15.786Z,21.23
2023-10-10T00:51:48.267Z,24.17
2023-10-10T00:54:27.801Z,24.63
2023-10-10T00:56:57.924Z,21.90
2023-10-10T00:59:33.845Z,23.40
2023-10-10T01:02:04.730Z,24.87
2023-10-10T01:04:40.353Z,24.80
2023-10-10T01:07:09.785Z,21.57
2023-10-10T01:10:41.724Z,19.63
2023-10-10T01:13:11.829Z,18.90
2023-10-10T01:15:40.016Z,18.57
2023-10-10T01:18:14.831Z,17.57
2023-10-10T01:20:47.854Z,18.10
2023-10-10T01:23:17.399Z,18.70
2023-10-10T01:25:45.392Z,19.23
2023-10-10T01:28:24.812Z,19.40
2023-10-10T01:31:00.599Z,16.77
2023-10-10T01:33:38.371Z,18.13
2023-10-10T01:36:13.415Z,18.53
2023-10-10T01:39:09.580Z,18.03
2023-10-10T01:41:41.103Z,15.90
2023-10-10T01:44:13.910Z,16.40
2023-10-10T01:46:43.137Z,16.47
2023-10-10T01:49:15.959Z,16.60
2023-10-10T01:51:45.964Z,16.23
2023-10-10T01:54:19.733Z,15.87
2023-10-10T01:56:48.442Z,15.73
2023-10-10T01:59:20.786Z,15.47
2023-10-10T02:01:50.060Z,15.97
2023-10-10T02:04:22.970Z,15.97
2023-10-10T02:06:57.926Z,14.13
2023-10-10T02:09:35.097Z,14.60
2023-10-10T02:12:17.648Z,16.47
2023-10-10T02:14:45.897Z,15.57
2023-10-10T02:17:28.306Z,11.67
2023-10-10T02:20:00.609Z,13.33
2023-10-10T02:22:48.845Z,12.60
2023-10-10T02:25:34.336Z,12.57
2023-10-10T02:28:04.976Z,12.13
2023-10-10T02:30:39.408Z,13.17
2023-10-10T02:33:21.366Z,13.87
2023-10-10T02:35:57.888Z,13.37
2023-10-10T02:38:36.140Z,12.63
2023-10-10T02:41:23.172Z,13.17
2023-10-10T02:44:06.196Z,13.07
2023-10-10T02:46:37.438Z,12.63
2023-10-10T02:49:15.752Z,13.67
2023-10-10T02:51:46.276Z,13.43
2023-10-10T02:54:29.585Z,13.33
2023-10-10T02:56:58.812Z,14.67
2023-10-10T02:59:32.322Z,13.73
2023-10-10T03:02:10.161Z,13.93
2023-10-10T03:04:58.906Z,13.10
2023-10-10T03:07:30.194Z,13.00
2023-10-10T03:10:18.255Z,15.53
2023-10-10T03:12:50.549Z,14.97
2023-10-10T03:15:30.290Z,16.33
2023-10-10T03:18:20.233Z,16.30
2023-10-10T03:21:07.993Z,16.97
2023-10-10T03:23:53.545Z,16.27
2023-10-10T03:26:52.701Z,17.77
2023-10-10T03:29:28.504Z,15.50
2023-10-10T03:32:10.698Z,17.23
2023-10-10T03:34:45.707Z,18.63
2023-10-10T03:37:28.596Z,16.30
2023-10-10T03:39:58.683Z,16.37
2023-10-10T03:42:45.598Z,15.43
2023-10-10T03:45:31.611Z,16.23
2023-10-10T03:48:18.568Z,16.10
2023-10-10T03:51:05.215Z,15.83
2023-10-10T03:53:50.789Z,14.17
2023-10-10T03:56:37.159Z,16.70
2023-10-10T03:59:25.772Z,16.00
2023-10-10T04:02:14.430Z,13.97
2023-10-10T04:05:11.896Z,13.73
2023-10-10T04:08:06.613Z,14.77
2023-10-10T04:10:52.321Z,30.23
2023-10-10T04:13:37.534Z,23.87
2023-10-10T04:16:27.833Z,20.40
2023-10-10T04:19:13.589Z,16.87
2023-10-10T04:21:58.834Z,15.47
2023-10-10T04:24:44.285Z,15.37
2023-10-10T04:27:30.261Z,16.10
2023-10-10T04:30:15.674Z,15.80
2023-10-10T04:33:02.718Z,16.07
2023-10-10T04:35:48.453Z,16.90
2023-10-10T04:38:45.672Z,15.90
2023-10-10T04:41:34.849Z,15.63
2023-10-10T04:44:20.138Z,16.43
2023-10-10T04:47:05.660Z,19.87
2023-10-10T04:49:52.715Z,20.63
2023-10-10T04:52:38.415Z,17.60
2023-10-10T04:55:36.172Z,18.13
2023-10-10T04:58:21.831Z,17.77
2023-10-10T05:01:07.398Z,21.47
2023-10-10T05:03:52.820Z,18.07
2023-10-10T05:06:39.889Z,19.97
2023-10-10T05:09:25.568Z,19.77
2023-10-10T05:12:12.809Z,17.00
2023-10-10T05:14:58.295Z,19.60
2023-10-10T05:17:45.010Z,18.40
2023-10-10T05:20:30.948Z,20.17
2023-10-10T05:23:17.825Z,22.10
2023-10-10T05:25:45.920Z,21.47
2023-10-10T05:28:13.907Z,26.47
2023-10-10T05:30:44.275Z,26.13
2023-10-10T05:33:14.181Z,23.77
2023-10-10T05:35:45.643Z,19.20
2023-10-10T05:38:16.588Z,23.30
2023-10-10T05:40:48.366Z,19.70
2023-10-10T05:43:17.854Z,19.30
2023-10-10T05:45:46.556Z,20.67
2023-10-10T05:48:15.936Z,16.17
2023-10-10T05:50:44.320Z,18.40
2023-10-10T05:53:12.452Z,18.77
2023-10-10T05:55:42.107Z,18.90
2023-10-10T05:58:10.118Z,17.83
2023-10-10T06:00:38.594Z,18.50
2023-10-10T06:03:07.787Z,16.77
2023-10-10T06:05:36.210Z,18.27
2023-10-10T06:08:07.353Z,16.30
2023-10-10T06:10:36.222Z,17.73
2023-10-10T06:13:07.848Z,16.90
2023-10-10T06:15:37.100Z,20.17
2023-10-10T06:18:14.622Z,24.87
2023-10-10T06:20:58.139Z,25.87
2023-10-10T06:23:34.385Z,23.10
2023-10-10T06:26:02.790Z,21.57
2023-10-10T06:28:37.175Z,18.67
2023-10-10T06:31:11.724Z,19.10
2023-10-10T06:33:43.008Z,18.17
2023-10-10T06:36:33.834Z,16.77
2023-10-10T06:39:20.052Z,18.50
2023-10-10T06:41:51.876Z,20.67
2023-10-10T06:44:40.736Z,20.73
2023-10-10T06:47:13.002Z,21.33
2023-10-10T06:49:57.060Z,22.83
2023-10-10T06:52:29.331Z,22.47
2023-10-10T06:54:58.134Z,21.40
2023-10-10T06:57:42.426Z,22.57
2023-10-10T07:00:22.610Z,22.30
2023-10-10T07:02:52.076Z,22.37
2023-10-10T07:05:21.597Z,21.63
2023-10-10T07:07:54.407Z,21.23
2023-10-10T07:10:27.630Z,19.53
2023-10-10T07:12:59.288Z,20.73
2023-10-10T07:15:29.575Z,18.87
2023-10-10T07:18:10.331Z,19.27
2023-10-10T07:21:08.696Z,21.43
2023-10-10T07:23:40.732Z,21.00
2023-10-10T07:26:20.513Z,23.17
2023-10-10T07:28:54.443Z,21.03
2023-10-10T07:31:25.968Z,22.07
2023-10-10T07:34:04.895Z,21.13
2023-10-10T07:36:33.367Z,23.13
2023-10-10T07:42:28.396Z,22.07
2023-10-10T07:44:57.262Z,23.13
2023-10-10T07:47:33.572Z,22.93
2023-10-10T07:50:09.976Z,22.47
2023-10-10T07:52:40.636Z,24.50
2023-10-10T07:55:09.796Z,22.93
2023-10-10T07:57:56.946Z,25.07
2023-10-10T08:00:35.900Z,24.90
2023-10-10T08:03:04.321Z,22.80
2023-10-10T08:05:32.444Z,23.37
2023-10-10T08:08:05.766Z,25.40
2023-10-10T08:10:39.917Z,24.97
2023-10-10T08:13:11.679Z,22.87
2023-10-10T08:15:50.759Z,22.93
2023-10-10T08:18:40.381Z,23.10
2023-10-10T08:21:09.502Z,26.00
2023-10-10T08:23:43.993Z,24.37
2023-10-10T08:26:19.544Z,24.20
2023-10-10T08:28:50.683Z,23.63
2023-10-10T08:31:19.415Z,24.40
2023-10-10T08:33:48.638Z,25.97
2023-10-10T08:36:24.780Z,24.63
2023-10-10T08:38:53.738Z,26.00
2023-10-10T08:41:25.184Z,25.37
2023-10-10T08:43:59.133Z,24.60
2023-10-10T08:46:31.317Z,23.37
2023-10-10T08:49:01.118Z,26.53
2023-10-10T08:51:35.367Z,23.80
2023-10-10T08:54:11.012Z,16.13
2023-10-10T08:56:41.228Z,14.93
2023-10-10T08:59:13.264Z,13.43
2023-10-10T09:01:43.604Z,14.13
2023-10-10T09:04:20.131Z,13.53
2023-10-10T09:06:59.188Z,11.97
2023-10-10T09:09:39.087Z,11.13
2023-10-10T09:12:14.037Z,11.73
2023-10-10T09:14:45.011Z,11.57
2023-10-10T09:17:29.998Z,10.80
2023-10-10T09:19:59.461Z,11.23
2023-10-10T09:22:31.699Z,11.00
2023-10-10T09:25:00.957Z,10.20
2023-10-10T09:27:30.031Z,9.73
2023-10-10T09:30:09.634Z,8.13
2023-10-10T09:32:43.842Z,10.03
2023-10-10T09:35:14.632Z,9.53
2023-10-10T09:37:45.431Z,10.00
2023-10-10T09:40:28.079Z,10.10
2023-10-10T09:43:13.359Z,9.33
2023-10-10T09:46:00.201Z,8.40
2023-10-10T09:48:47.629Z,8.83
2023-10-10T09:51:52.745Z,9.23
2023-10-10T09:54:26.725Z,8.93
2023-10-10T09:56:57.529Z,8.90
2023-10-10T09:59:29.962Z,8.90
2023-10-10T10:02:05.740Z,9.13
2023-10-10T10:04:43.609Z,10.00
2023-10-10T10:07:37.050Z,8.67
2023-10-10T10:10:35.827Z,9.70
2023-10-10T10:13:20.736Z,8.57
2023-10-10T10:16:26.707Z,8.50
2023-10-10T10:19:13.444Z,9.40
2023-10-10T10:21:53.378Z,7.73
2023-10-10T10:24:31.954Z,8.40
2023-10-10T10:27:25.980Z,8.50
2023-10-10T10:30:08.706Z,8.43
2023-10-10T10:32:37.110Z,8.83
2023-10-10T10:35:14.475Z,8.30
2023-10-10T10:37:44.364Z,7.67
2023-10-10T10:40:25.446Z,8.20
2023-10-10T10:42:54.807Z,7.40
2023-10-10T10:45:35.040Z,8.00
2023-10-10T10:48:08.705Z,6.97
2023-10-10T10:50:44.040Z,7.10
2023-10-10T10:53:37.926Z,7.13
2023-10-10T10:56:24.517Z,7.53
2023-10-10T10:59:07.132Z,7.57
2023-10-10T11:01:43.342Z,6.90
2023-10-10T11:04:23.622Z,6.57
2023-10-10T11:06:53.674Z,4.87
2023-10-10T11:09:31.071Z,5.43
2023-10-10T11:12:04.662Z,5.00
2023-10-10T11:14:35.685Z,4.23
2023-10-10T11:17:03.757Z,4.43
2023-10-10T11:19:42.295Z,4.30
2023-10-10T11:22:35.004Z,4.70
2023-10-10T11:25:06.286Z,4.20
2023-10-10T11:27:44.836Z,4.40
2023-10-10T11:30:20.695Z,4.73
2023-10-10T11:32:49.058Z,5.00
2023-10-10T11:35:26.756Z,3.80
2023-10-10T11:38:07.479Z,5.17
2023-10-10T11:40:36.084Z,5.30
2023-10-10T11:43:05.890Z,5.00
2023-10-10T11:45:40.928Z,5.20
2023-10-10T11:48:14.094Z,5.67
2023-10-10T11:50:46.985Z,5.33
2023-10-10T11:53:21.293Z,5.57
2023-10-10T11:55:49.853Z,6.40
2023-10-10T11:58:18.882Z,6.97
2023-10-10T12:00:47.535Z,8.43
2023-10-10T12:03:20.190Z,8.63
2023-10-10T12:05:52.047Z,7.60
2023-10-10T12:08:25.438Z,9.50
2023-10-10T12:10:54.727Z,9.20
2023-10-10T12:13:34.840Z,10.20
2023-10-10T12:16:09.073Z,10.70
2023-10-10T12:18:44.869Z,10.70
2023-10-10T12:21:15.956Z,12.23
2023-10-10T12:23:45.391Z,12.20
2023-10-10T12:26:13.452Z,12.37
2023-10-10T12:28:44.869Z,11.57
2023-10-10T12:31:17.510Z,12.63
2023-10-10T12:33:49.302Z,12.37
2023-10-10T12:36:17.644Z,12.27
2023-10-10T12:38:49.850Z,12.17
2023-10-10T12:41:22.547Z,12.70
2023-10-10T12:43:51.844Z,13.03
2023-10-10T12:46:22.507Z,13.20
2023-10-10T12:48:53.170Z,11.97
2023-10-10T12:51:25.605Z,11.37
2023-10-10T12:54:01.947Z,11.20
2023-10-10T12:56:30.653Z,10.77
2023-10-10T12:59:23.602Z,10.60
2023-10-10T13:01:57.078Z,11.80
2023-10-10T13:04:30.521Z,11.87
2023-10-10T13:07:03.839Z,11.23
2023-10-10T13:09:36.938Z,11.23
2023-10-10T13:12:05.612Z,10.47
2023-10-10T13:14:35.473Z,11.13
2023-10-10T13:17:30.722Z,11.27
2023-10-10T13:20:00.593Z,11.07
2023-10-10T13:22:30.607Z,10.93
2023-10-10T13:25:00.514Z,9.90
2023-10-10T13:27:28.560Z,9.73
2023-10-10T13:29:56.643Z,11.47
2023-10-10T13:32:25.803Z,11.70
2023-10-10T13:34:54.187Z,9.77
2023-10-10T13:37:23.355Z,9.90
2023-10-10T13:39:55.786Z,8.17
2023-10-10T13:42:25.604Z,7.80
2023-10-10T13:45:02.440Z,7.53
2023-10-10T13:47:31.592Z,7.00
2023-10-10T13:50:21.526Z,8.13
2023-10-10T13:52:49.548Z,7.63
2023-10-10T13:55:19.662Z,8.67
2023-10-10T13:57:50.575Z,10.33
2023-10-10T14:00:30.970Z,6.47
2023-10-10T14:03:04.806Z,7.30
2023-10-10T14:05:35.806Z,7.13
2023-10-10T14:08:07.381Z,7.97
2023-10-10T14:10:40.015Z,7.67
2023-10-10T14:13:21.883Z,7.90
2023-10-10T14:15:57.598Z,7.87
2023-10-10T14:18:30.083Z,9.50
2023-10-10T14:21:02.600Z,7.37
2023-10-10T14:23:36.676Z,8.30
2023-10-10T14:26:15.052Z,6.93
2023-10-10T14:28:51.950Z,7.60
2023-10-10T14:31:22.866Z,7.93
2023-10-10T14:33:51.943Z,8.53
2023-10-10T14:36:20.184Z,8.37
2023-10-10T14:38:51.387Z,9.03
2023-10-10T14:41:21.419Z,8.57
2023-10-10T14:43:52.583Z,9.27
2023-10-10T14:46:23.465Z,8.70
2023-10-10T14:48:52.754Z,9.23
2023-10-10T14:51:21.887Z,8.93
2023-10-10T14:53:54.105Z,10.97
2023-10-10T14:56:35.485Z,9.13
2023-10-10T14:59:07.309Z,9.33
2023-10-10T15:01:37.233Z,9.53
2023-10-10T15:04:06.134Z,9.97
2023-10-10T15:06:35.477Z,10.20
2023-10-10T15:09:04.037Z,10.30
2023-10-10T15:11:32.318Z,12.03
2023-10-10T15:14:01.074Z,11.20
2023-10-10T15:16:36.556Z,11.33
2023-10-10T15:19:07.463Z,10.30
2023-10-10T15:21:36.612Z,10.83
2023-10-10T15:24:06.182Z,9.47
2023-10-10T15:26:35.998Z,10.20
2023-10-10T15:29:04.775Z,10.07
2023-10-10T15:31:34.561Z,10.10
2023-10-10T15:34:02.599Z,9.03
2023-10-10T15:36:31.522Z,9.47
2023-10-10T15:39:05.117Z,9.87
2023-10-10T15:41:35.513Z,12.10
2023-10-10T15:44:03.894Z,11.80
2023-10-10T15:46:35.356Z,12.07
2023-10-10T15:51:40.152Z,13.23
2023-10-10T15:54:10.158Z,12.93
2023-10-10T15:56:38.636Z,11.73
2023-10-10T15:59:07.166Z,11.17
2023-10-10T16:01:37.030Z,9.90
2023-10-10T16:04:11.485Z,10.87
2023-10-10T16:06:39.472Z,9.73
2023-10-10T16:09:11.986Z,10.07
2023-10-10T16:11:41.600Z,10.67
2023-10-10T16:14:12.694Z,10.83
2023-10-10T16:16:45.294Z,9.77
2023-10-10T16:19:14.840Z,10.07
2023-10-10T16:21:43.570Z,10.73
2023-10-10T16:24:12.760Z,9.97
2023-10-10T16:26:41.875Z,11.00
2023-10-10T16:29:10.055Z,11.40
2023-10-10T16:31:38.138Z,10.60
2023-10-10T16:34:07.588Z,10.87
2023-10-10T16:36:35.916Z,11.77
2023-10-10T16:39:06.274Z,11.03
2023-10-10T16:41:35.646Z,11.83
2023-10-10T16:44:05.322Z,12.13
2023-10-10T16:46:33.653Z,15.63
2023-10-10T16:49:01.704Z,15.47
2023-10-10T16:51:33.626Z,15.60
2023-10-10T16:54:02.289Z,16.17
2023-10-10T16:56:30.863Z,13.97
2023-10-10T16:58:59.118Z,12.50
2023-10-10T17:01:28.421Z,12.50
2023-10-10T17:03:56.709Z,12.13
2023-10-10T17:06:26.484Z,13.57
2023-10-10T17:09:00.491Z,13.30
2023-10-10T17:11:29.051Z,13.23
2023-10-10T17:13:57.276Z,14.97
2023-10-10T17:16:30.219Z,29.00
2023-10-10T17:21:31.700Z,80.73
2023-10-10T17:24:02.880Z,50.30
2023-10-10T17:26:31.616Z,32.67
2023-10-10T17:29:01.850Z,34.80
2023-10-10T17:31:30.074Z,45.87
2023-10-10T17:34:02.526Z,55.40
2023-10-10T17:36:30.837Z,38.10
2023-10-10T17:39:01.967Z,82.43
2023-10-10T17:41:30.296Z,64.60
2023-10-10T17:43:58.418Z,52.60
2023-10-10T17:46:31.125Z,64.60
2023-10-10T17:48:59.402Z,49.73
2023-10-10T17:51:29.505Z,41.63
2023-10-10T17:53:57.598Z,41.30
2023-10-10T17:56:28.414Z,34.60
2023-10-10T17:58:56.767Z,27.07
2023-10-10T18:01:24.851Z,27.00
2023-10-10T18:03:54.955Z,42.80
2023-10-10T18:06:25.514Z,61.87
2023-10-10T18:08:54.519Z,43.03
2023-10-10T18:11:27.466Z,37.53
2023-10-10T18:13:56.962Z,43.83
2023-10-10T18:16:24.956Z,38.97
2023-10-10T18:18:53.960Z,57.57
2023-10-10T18:21:22.450Z,49.73
2023-10-10T18:23:50.726Z,34.23
2023-10-10T18:26:21.607Z,35.03
2023-10-10T18:28:50.831Z,35.27
2023-10-10T18:31:22.598Z,35.77
2023-10-10T18:33:50.864Z,30.50
2023-10-10T18:36:19.044Z,29.70
2023-10-10T18:38:47.196Z,37.70
2023-10-10T18:41:23.642Z,39.67
2023-10-10T18:43:51.901Z,29.87
2023-10-10T18:46:21.378Z,21.27
2023-10-10T18:48:50.219Z,22.10
2023-10-10T18:51:18.311Z,19.73
2023-10-10T18:53:48.572Z,18.70
2023-10-10T18:56:17.005Z,17.47
2023-10-10T18:58:45.029Z,18.20
2023-10-10T19:01:13.917Z,19.23
2023-10-10T19:03:48.106Z,30.07
2023-10-10T19:06:18.895Z,22.10
2023-10-10T19:08:47.393Z,20.30
2023-10-10T19:11:17.669Z,20.57
2023-10-10T19:13:50.613Z,18.57
2023-10-10T19:16:19.128Z,26.83
2023-10-10T19:18:49.199Z,36.63
2023-10-10T19:21:18.879Z,30.53
2023-10-10T19:23:49.268Z,22.07
2023-10-10T19:26:17.823Z,20.63
2023-10-10T19:28:46.843Z,26.83
2023-10-10T19:31:15.747Z,25.53
2023-10-10T19:33:44.137Z,33.97
2023-10-10T19:36:14.011Z,35.23
2023-10-10T19:38:42.234Z,28.97
2023-10-10T19:41:11.239Z,34.70
2023-10-10T19:43:39.623Z,45.87
2023-10-10T19:46:11.992Z,43.53
2023-10-10T19:48:42.153Z,53.77
2023-10-10T19:51:18.507Z,29.03
2023-10-10T19:53:50.174Z,43.43
2023-10-10T19:56:19.014Z,30.63
2023-10-10T19:58:47.641Z,27.97
2023-10-10T20:01:16.998Z,26.43
2023-10-10T20:03:47.565Z,29.73
2023-10-10T20:06:21.905Z,26.67
2023-10-10T20:08:50.600Z,24.80
2023-10-10T20:11:18.794Z,22.10
2023-10-10T20:13:47.465Z,21.13
2023-10-10T20:16:17.653Z,18.30
2023-10-10T20:18:46.404Z,18.57
2023-10-10T20:21:15.031Z,17.97
2023-10-10T20:23:44.841Z,17.97
2023-10-10T20:26:18.449Z,35.53
2023-10-10T20:28:48.353Z,69.13
2023-10-10T20:31:18.310Z,30.90
2023-10-10T20:33:48.463Z,27.83
2023-10-10T20:36:17.621Z,43.07
2023-10-10T20:38:47.251Z,27.63
2023-10-10T20:41:16.096Z,30.50
2023-10-10T20:43:44.848Z,20.03
2023-10-10T20:46:19.880Z,17.77
2023-10-10T20:48:48.989Z,18.57
2023-10-10T20:51:17.504Z,17.50
2023-10-10T20:53:47.467Z,21.00
2023-10-10T20:56:18.033Z,26.57
2023-10-10T20:58:46.400Z,23.20
2023-10-10T21:01:14.931Z,24.20
2023-10-10T21:03:43.558Z,21.20
2023-10-10T21:06:12.872Z,21.00
2023-10-10T21:08:41.573Z,21.40
2023-10-10T21:11:12.256Z,20.10
2023-10-10T21:13:41.274Z,18.93
2023-10-10T21:16:16.176Z,19.50
2023-10-10T21:18:46.430Z,19.90
2023-10-10T21:21:15.046Z,19.63
2023-10-10T21:23:43.982Z,17.37
2023-10-10T21:26:16.199Z,20.07
2023-10-10T21:28:45.735Z,18.87
2023-10-10T21:31:13.968Z,27.50
2023-10-10T21:33:45.187Z,22.07
2023-10-10T21:36:13.823Z,21.03
2023-10-10T21:38:42.156Z,18.20
2023-10-10T21:41:11.284Z,20.67
2023-10-10T21:43:41.177Z,18.77
2023-10-10T21:46:09.637Z,20.87
2023-10-10T21:48:38.440Z,22.13
2023-10-10T21:51:08.699Z,20.50
2023-10-10T21:53:38.516Z,19.63
2023-10-10T21:56:07.806Z,20.30
2023-10-10T21:58:39.996Z,21.97
2023-10-10T22:01:12.570Z,21.60
2023-10-10T22:03:50.218Z,19.33
2023-10-10T22:06:19.234Z,18.93
2023-10-10T22:14:19.313Z,21.43
2023-10-10T22:16:49.861Z,21.27
2023-10-10T22:19:20.619Z,29.43
2023-10-10T22:21:50.719Z,31.80
2023-10-10T22:24:19.137Z,34.30
2023-10-10T22:26:47.654Z,23.17
2023-10-10T22:29:16.931Z,22.90
2023-10-10T22:31:45.584Z,35.50
2023-10-10T22:34:15.774Z,21.07
2023-10-10T22:36:52.070Z,47.03
2023-10-10T22:39:31.142Z,45.30
2023-10-10T22:41:59.611Z,28.23
2023-10-10T22:44:30.989Z,22.80
2023-10-10T22:46:59.652Z,34.70
2023-10-10T22:49:32.125Z,28.33
2023-10-10T22:52:00.618Z,25.40
2023-10-10T22:54:29.351Z,27.60
2023-10-10T22:56:58.594Z,30.57
2023-10-10T22:59:28.041Z,30.07
2023-10-10T23:01:56.611Z,26.07
2023-10-10T23:04:25.429Z,28.20
2023-10-10T23:06:55.602Z,26.63
2023-10-10T23:09:26.155Z,28.50
2023-10-10T23:11:55.123Z,24.17
2023-10-10T23:14:23.664Z,20.47
2023-10-10T23:16:56.875Z,21.33
2023-10-10T23:19:25.515Z,20.83
2023-10-10T23:21:55.418Z,19.33
2023-10-10T23:24:23.872Z,19.20
2023-10-10T23:26:52.418Z,19.77
2023-10-10T23:29:20.983Z,19.10
2023-10-10T23:31:49.547Z,20.13
2023-10-10T23:34:18.083Z,19.63
2023-10-10T23:36:46.525Z,19.30
2023-10-10T23:39:18.588Z,21.17
2023-10-10T23:41:48.223Z,19.57
2023-10-10T23:44:18.042Z,21.03
2023-10-10T23:46:48.465Z,21.10
2023-10-10T23:49:17.034Z,20.03
2023-10-10T23:51:46.020Z,19.87
2023-10-10T23:54:16.342Z,18.87
2023-10-10T23:56:50.083Z,22.13
2023-10-10T23:59:21.574Z,21.63
